sensor_id;sensor_type;location;lat;lon;timestamp;pressure;altitude;pressure_sealevel;temperature;humidity
61682;BME280;47577;43.610;25.010;2023-04-12T00:01:05;99299.19;;;10.32;69.97
61682;BME280;47577;43.610;25.010;2023-04-12T00:03:31;99295.22;;;10.23;68.81
61682;BME280;47577;43.610;25.010;2023-04-12T00:05:59;99291.03;;;10.00;70.66
61682;BME280;47577;43.610;25.010;2023-04-12T00:08:28;99294.84;;;9.94;70.54
61682;BME280;47577;43.610;25.010;2023-04-12T00:11:02;99298.56;;;10.09;71.42
61682;BME280;47577;43.610;25.010;2023-04-12T00:13:28;99284.00;;;9.99;71.21
61682;BME280;47577;43.610;25.010;2023-04-12T00:15:54;99287.06;;;10.09;70.50
61682;BME280;47577;43.610;25.010;2023-04-12T00:18:20;99299.94;;;9.99;71.83
61682;BME280;47577;43.610;25.010;2023-04-12T00:20:53;99287.28;;;10.04;70.20
61682;BME280;47577;43.610;25.010;2023-04-12T00:23:19;99297.09;;;10.21;69.88
61682;BME280;47577;43.610;25.010;2023-04-12T00:25:48;99291.88;;;10.00;71.67
61682;BME280;47577;43.610;25.010;2023-04-12T00:28:14;99288.00;;;10.07;70.88
61682;BME280;47577;43.610;25.010;2023-04-12T00:30:40;99270.06;;;10.13;71.02
61682;BME280;47577;43.610;25.010;2023-04-12T00:33:06;99273.84;;;10.07;70.50
61682;BME280;47577;43.610;25.010;2023-04-12T00:35:32;99267.78;;;10.05;71.59
61682;BME280;47577;43.610;25.010;2023-04-12T00:37:57;99271.41;;;10.02;71.77
61682;BME280;47577;43.610;25.010;2023-04-12T00:40:23;99267.38;;;9.95;71.13
61682;BME280;47577;43.610;25.010;2023-04-12T00:42:48;99267.13;;;10.00;71.00
61682;BME280;47577;43.610;25.010;2023-04-12T00:45:14;99261.28;;;9.93;70.91
61682;BME280;47577;43.610;25.010;2023-04-12T00:47:41;99272.50;;;9.81;72.84
61682;BME280;47577;43.610;25.010;2023-04-12T00:50:10;99262.34;;;9.89;71.65
61682;BME280;47577;43.610;25.010;2023-04-12T00:52:36;99259.78;;;9.87;71.92
61682;BME280;47577;43.610;25.010;2023-04-12T00:55:03;99258.78;;;9.90;71.60
61682;BME280;47577;43.610;25.010;2023-04-12T00:57:37;99244.06;;;9.83;71.64
61682;BME280;47577;43.610;25.010;2023-04-12T01:00:08;99269.63;;;9.85;72.48
61682;BME280;47577;43.610;25.010;2023-04-12T01:02:39;99263.38;;;9.86;72.32
61682;BME280;47577;43.610;25.010;2023-04-12T01:05:06;99258.69;;;9.92;71.83
61682;BME280;47577;43.610;25.010;2023-04-12T01:15:53;99248.94;;;9.92;70.92
61682;BME280;47577;43.610;25.010;2023-04-12T01:18:21;99249.56;;;9.97;70.77
61682;BME280;47577;43.610;25.010;2023-04-12T01:20:58;99233.84;;;9.75;69.50
61682;BME280;47577;43.610;25.010;2023-04-12T01:28:46;99243.16;;;10.01;69.20
61682;BME280;47577;43.610;25.010;2023-04-12T01:31:17;99241.50;;;9.99;68.70
61682;BME280;47577;43.610;25.010;2023-04-12T01:33:44;99243.56;;;10.11;68.89
61682;BME280;47577;43.610;25.010;2023-04-12T01:36:20;99245.84;;;10.19;68.38
61682;BME280;47577;43.610;25.010;2023-04-12T01:38:47;99246.00;;;10.16;68.77
61682;BME280;47577;43.610;25.010;2023-04-12T01:41:14;99246.06;;;10.14;69.58
61682;BME280;47577;43.610;25.010;2023-04-12T01:43:44;99236.69;;;10.24;67.71
61682;BME280;47577;43.610;25.010;2023-04-12T01:46:15;99230.44;;;10.25;68.70
61682;BME280;47577;43.610;25.010;2023-04-12T01:48:46;99239.41;;;10.23;69.01
61682;BME280;47577;43.610;25.010;2023-04-12T01:54:11;99224.50;;;10.20;68.75
61682;BME280;47577;43.610;25.010;2023-04-12T01:56:43;99231.59;;;10.20;68.55
61682;BME280;47577;43.610;25.010;2023-04-12T01:59:15;99236.34;;;10.32;68.28
61682;BME280;47577;43.610;25.010;2023-04-12T02:01:43;99242.34;;;10.36;67.88
61682;BME280;47577;43.610;25.010;2023-04-12T02:04:11;99231.28;;;10.26;67.84
61682;BME280;47577;43.610;25.010;2023-04-12T02:06:38;99237.16;;;10.15;68.65
61682;BME280;47577;43.610;25.010;2023-04-12T02:09:04;99243.50;;;10.30;68.00
61682;BME280;47577;43.610;25.010;2023-04-12T02:11:30;99241.50;;;10.35;67.77
61682;BME280;47577;43.610;25.010;2023-04-12T02:13:56;99242.19;;;10.39;67.00
61682;BME280;47577;43.610;25.010;2023-04-12T02:16:22;99235.38;;;10.33;68.03
61682;BME280;47577;43.610;25.010;2023-04-12T02:18:49;99232.72;;;10.33;68.08
61682;BME280;47577;43.610;25.010;2023-04-12T02:21:15;99244.50;;;10.28;68.91
61682;BME280;47577;43.610;25.010;2023-04-12T02:23:41;99237.88;;;10.19;69.95
61682;BME280;47577;43.610;25.010;2023-04-12T02:26:09;99245.78;;;10.20;70.19
61682;BME280;47577;43.610;25.010;2023-04-12T02:28:36;99235.06;;;10.04;70.06
61682;BME280;47577;43.610;25.010;2023-04-12T02:31:04;99242.22;;;10.02;70.77
61682;BME280;47577;43.610;25.010;2023-04-12T02:33:33;99239.63;;;10.01;70.34
61682;BME280;47577;43.610;25.010;2023-04-12T02:35:59;99243.63;;;9.92;70.14
61682;BME280;47577;43.610;25.010;2023-04-12T02:38:27;99237.28;;;9.77;70.37
61682;BME280;47577;43.610;25.010;2023-04-12T02:40:53;99237.97;;;9.81;71.31
61682;BME280;47577;43.610;25.010;2023-04-12T02:43:20;99232.09;;;9.74;71.61
61682;BME280;47577;43.610;25.010;2023-04-12T02:45:46;99252.25;;;9.78;71.80
61682;BME280;47577;43.610;25.010;2023-04-12T02:48:12;99234.31;;;9.83;71.58
61682;BME280;47577;43.610;25.010;2023-04-12T02:50:37;99224.16;;;9.74;72.52
61682;BME280;47577;43.610;25.010;2023-04-12T02:53:03;99232.53;;;9.84;72.40
61682;BME280;47577;43.610;25.010;2023-04-12T02:55:29;99227.75;;;9.91;72.18
61682;BME280;47577;43.610;25.010;2023-04-12T02:57:55;99216.59;;;9.84;71.43
61682;BME280;47577;43.610;25.010;2023-04-12T03:00:22;99214.22;;;9.78;72.41
61682;BME280;47577;43.610;25.010;2023-04-12T03:02:48;99225.00;;;9.75;71.88
61682;BME280;47577;43.610;25.010;2023-04-12T03:05:17;99230.38;;;9.73;72.36
61682;BME280;47577;43.610;25.010;2023-04-12T03:07:43;99215.16;;;9.59;73.32
61682;BME280;47577;43.610;25.010;2023-04-12T03:10:09;99231.88;;;9.79;73.01
61682;BME280;47577;43.610;25.010;2023-04-12T03:12:38;99222.81;;;9.65;72.92
61682;BME280;47577;43.610;25.010;2023-04-12T03:15:04;99223.03;;;9.61;72.60
61682;BME280;47577;43.610;25.010;2023-04-12T03:17:30;99228.69;;;9.72;73.46
61682;BME280;47577;43.610;25.010;2023-04-12T03:20:02;99213.91;;;9.66;73.12
61682;BME280;47577;43.610;25.010;2023-04-12T03:22:28;99223.69;;;9.83;72.52
61682;BME280;47577;43.610;25.010;2023-04-12T03:24:53;99235.03;;;9.87;71.83
61682;BME280;47577;43.610;25.010;2023-04-12T03:27:19;99243.75;;;9.89;72.74
61682;BME280;47577;43.610;25.010;2023-04-12T03:29:45;99234.31;;;9.83;72.42
61682;BME280;47577;43.610;25.010;2023-04-12T03:32:10;99225.94;;;9.74;72.57
61682;BME280;47577;43.610;25.010;2023-04-12T03:34:36;99243.44;;;9.78;73.55
61682;BME280;47577;43.610;25.010;2023-04-12T03:37:02;99238.50;;;9.70;73.76
61682;BME280;47577;43.610;25.010;2023-04-12T03:39:28;99246.78;;;9.81;72.79
61682;BME280;47577;43.610;25.010;2023-04-12T03:41:54;99251.81;;;9.87;72.98
61682;BME280;47577;43.610;25.010;2023-04-12T03:44:19;99249.06;;;9.89;72.14
61682;BME280;47577;43.610;25.010;2023-04-12T03:46:46;99244.22;;;9.80;72.21
61682;BME280;47577;43.610;25.010;2023-04-12T03:49:12;99243.28;;;9.81;73.21
61682;BME280;47577;43.610;25.010;2023-04-12T03:51:39;99248.53;;;9.82;72.74
61682;BME280;47577;43.610;25.010;2023-04-12T03:54:11;99248.59;;;9.81;72.75
61682;BME280;47577;43.610;25.010;2023-04-12T03:56:37;99263.19;;;9.89;71.83
61682;BME280;47577;43.610;25.010;2023-04-12T03:59:06;99265.97;;;9.88;72.35
61682;BME280;47577;43.610;25.010;2023-04-12T04:01:33;99254.09;;;9.95;71.13
61682;BME280;47577;43.610;25.010;2023-04-12T04:03:59;99249.56;;;9.97;70.54
61682;BME280;47577;43.610;25.010;2023-04-12T04:06:25;99269.78;;;10.00;70.31
61682;BME280;47577;43.610;25.010;2023-04-12T04:08:51;99269.44;;;10.07;70.18
61682;BME280;47577;43.610;25.010;2023-04-12T04:11:16;99261.97;;;9.97;70.11
61682;BME280;47577;43.610;25.010;2023-04-12T04:13:42;99263.72;;;9.98;70.28
61682;BME280;47577;43.610;25.010;2023-04-12T04:16:08;99260.47;;;9.91;71.26
61682;BME280;47577;43.610;25.010;2023-04-12T04:18:35;99269.38;;;9.90;70.64
61682;BME280;47577;43.610;25.010;2023-04-12T04:21:00;99262.44;;;9.87;71.17
61682;BME280;47577;43.610;25.010;2023-04-12T04:23:26;99261.50;;;9.88;70.42
61682;BME280;47577;43.610;25.010;2023-04-12T04:25:54;99269.38;;;9.90;72.13
61682;BME280;47577;43.610;25.010;2023-04-12T04:28:20;99270.53;;;9.84;71.48
61682;BME280;47577;43.610;25.010;2023-04-12T04:30:45;99269.28;;;9.74;72.60
61682;BME280;47577;43.610;25.010;2023-04-12T04:33:11;99279.81;;;9.76;71.81
61682;BME280;47577;43.610;25.010;2023-04-12T04:35:41;99284.84;;;9.63;73.24
61682;BME280;47577;43.610;25.010;2023-04-12T04:38:08;99290.72;;;9.69;73.39
61682;BME280;47577;43.610;25.010;2023-04-12T04:40:37;99295.47;;;9.63;74.20
61682;BME280;47577;43.610;25.010;2023-04-12T04:43:03;99299.41;;;9.73;73.08
61682;BME280;47577;43.610;25.010;2023-04-12T04:45:29;99300.50;;;9.69;74.24
61682;BME280;47577;43.610;25.010;2023-04-12T04:47:56;99305.34;;;9.78;73.63
61682;BME280;47577;43.610;25.010;2023-04-12T04:50:23;99301.63;;;9.63;74.02
61682;BME280;47577;43.610;25.010;2023-04-12T04:52:49;99308.75;;;9.63;74.49
61682;BME280;47577;43.610;25.010;2023-04-12T04:55:16;99305.94;;;9.66;74.33
61682;BME280;47577;43.610;25.010;2023-04-12T04:57:51;99295.53;;;9.61;74.54
61682;BME280;47577;43.610;25.010;2023-04-12T05:00:17;99299.03;;;9.62;73.50
61682;BME280;47577;43.610;25.010;2023-04-12T05:02:43;99294.91;;;9.75;74.16
61682;BME280;47577;43.610;25.010;2023-04-12T05:05:10;99302.25;;;9.68;73.69
61682;BME280;47577;43.610;25.010;2023-04-12T05:07:42;99308.81;;;9.80;74.30
61682;BME280;47577;43.610;25.010;2023-04-12T05:10:09;99296.59;;;9.76;73.46
61682;BME280;47577;43.610;25.010;2023-04-12T05:12:36;99304.91;;;9.87;74.64
61682;BME280;47577;43.610;25.010;2023-04-12T05:15:02;99303.28;;;9.85;73.36
61682;BME280;47577;43.610;25.010;2023-04-12T05:17:28;99301.28;;;9.71;75.34
61682;BME280;47577;43.610;25.010;2023-04-12T05:19:54;99295.75;;;9.76;74.96
61682;BME280;47577;43.610;25.010;2023-04-12T05:22:20;99302.53;;;9.81;74.78
61682;BME280;47577;43.610;25.010;2023-04-12T05:24:49;99304.56;;;9.76;75.82
61682;BME280;47577;43.610;25.010;2023-04-12T05:27:14;99295.41;;;9.64;76.35
61682;BME280;47577;43.610;25.010;2023-04-12T05:29:43;99307.16;;;9.78;76.88
61682;BME280;47577;43.610;25.010;2023-04-12T05:32:09;99297.19;;;9.64;77.44
61682;BME280;47577;43.610;25.010;2023-04-12T05:34:35;99296.09;;;9.49;77.34
61682;BME280;47577;43.610;25.010;2023-04-12T05:37:02;99307.88;;;9.43;79.30
61682;BME280;47577;43.610;25.010;2023-04-12T05:39:28;99297.84;;;9.50;79.97
61682;BME280;47577;43.610;25.010;2023-04-12T05:41:54;99299.78;;;9.65;78.64
61682;BME280;47577;43.610;25.010;2023-04-12T05:44:20;99294.50;;;9.83;78.61
61682;BME280;47577;43.610;25.010;2023-04-12T05:46:45;99279.31;;;9.86;78.11
61682;BME280;47577;43.610;25.010;2023-04-12T05:49:11;99280.19;;;10.04;77.74
61682;BME280;47577;43.610;25.010;2023-04-12T05:51:37;99269.34;;;10.09;77.16
61682;BME280;47577;43.610;25.010;2023-04-12T05:54:02;99264.19;;;10.06;77.26
61682;BME280;47577;43.610;25.010;2023-04-12T05:56:31;99267.06;;;10.01;77.26
61682;BME280;47577;43.610;25.010;2023-04-12T05:58:57;99300.94;;;10.33;77.30
61682;BME280;47577;43.610;25.010;2023-04-12T06:01:24;99268.25;;;10.66;75.54
61682;BME280;47577;43.610;25.010;2023-04-12T06:03:55;99264.56;;;10.86;74.52
61682;BME280;47577;43.610;25.010;2023-04-12T06:06:20;99269.31;;;10.96;74.05
61682;BME280;47577;43.610;25.010;2023-04-12T06:08:46;99266.47;;;11.00;73.53
61682;BME280;47577;43.610;25.010;2023-04-12T06:11:11;99246.38;;;11.11;73.52
61682;BME280;47577;43.610;25.010;2023-04-12T06:13:38;99256.59;;;11.35;72.91
61682;BME280;47577;43.610;25.010;2023-04-12T06:16:04;99277.97;;;11.49;72.80
61682;BME280;47577;43.610;25.010;2023-04-12T06:18:30;99249.47;;;11.67;72.71
61682;BME280;47577;43.610;25.010;2023-04-12T06:20:56;99243.72;;;11.75;71.93
61682;BME280;47577;43.610;25.010;2023-04-12T06:23:22;99255.91;;;11.95;71.57
61682;BME280;47577;43.610;25.010;2023-04-12T06:25:47;99257.09;;;11.89;70.28
61682;BME280;47577;43.610;25.010;2023-04-12T06:28:14;99254.78;;;11.99;70.37
61682;BME280;47577;43.610;25.010;2023-04-12T06:30:41;99242.69;;;11.94;70.80
61682;BME280;47577;43.610;25.010;2023-04-12T06:33:06;99259.22;;;12.15;71.96
61682;BME280;47577;43.610;25.010;2023-04-12T06:35:32;99261.09;;;12.29;70.33
61682;BME280;47577;43.610;25.010;2023-04-12T06:37:58;99266.00;;;12.20;66.94
61682;BME280;47577;43.610;25.010;2023-04-12T06:40:23;99263.00;;;12.27;67.90
61682;BME280;47577;43.610;25.010;2023-04-12T06:42:49;99259.41;;;12.42;67.89
61682;BME280;47577;43.610;25.010;2023-04-12T06:45:15;99266.47;;;12.43;67.23
61682;BME280;47577;43.610;25.010;2023-04-12T06:47:41;99269.47;;;12.67;67.07
61682;BME280;47577;43.610;25.010;2023-04-12T06:50:07;99261.53;;;12.51;67.00
61682;BME280;47577;43.610;25.010;2023-04-12T06:52:33;99262.81;;;12.30;66.72
61682;BME280;47577;43.610;25.010;2023-04-12T06:54:58;99269.09;;;12.29;66.64
61682;BME280;47577;43.610;25.010;2023-04-12T06:57:24;99288.50;;;12.31;66.52
61682;BME280;47577;43.610;25.010;2023-04-12T06:59:50;99283.97;;;12.47;66.47
61682;BME280;47577;43.610;25.010;2023-04-12T07:02:16;99258.72;;;12.69;64.94
61682;BME280;47577;43.610;25.010;2023-04-12T07:04:41;99254.91;;;12.87;64.85
61682;BME280;47577;43.610;25.010;2023-04-12T07:07:08;99280.56;;;13.04;64.13
61682;BME280;47577;43.610;25.010;2023-04-12T07:09:34;99253.28;;;13.13;64.07
61682;BME280;47577;43.610;25.010;2023-04-12T07:12:00;99258.25;;;13.20;62.02
61682;BME280;47577;43.610;25.010;2023-04-12T07:14:27;99272.25;;;13.23;61.43
61682;BME280;47577;43.610;25.010;2023-04-12T07:16:52;99264.25;;;13.23;60.77
61682;BME280;47577;43.610;25.010;2023-04-12T07:19:18;99262.75;;;13.33;60.55
61682;BME280;47577;43.610;25.010;2023-04-12T07:21:44;99275.50;;;12.99;60.78
61682;BME280;47577;43.610;25.010;2023-04-12T07:24:09;99271.66;;;12.89;60.51
61682;BME280;47577;43.610;25.010;2023-04-12T07:26:35;99279.50;;;12.78;62.06
61682;BME280;47577;43.610;25.010;2023-04-12T07:29:01;99275.75;;;12.66;60.59
61682;BME280;47577;43.610;25.010;2023-04-12T07:31:26;99266.84;;;12.21;61.54
61682;BME280;47577;43.610;25.010;2023-04-12T07:33:55;99276.81;;;12.33;61.97
61682;BME280;47577;43.610;25.010;2023-04-12T07:36:20;99271.75;;;12.29;62.14
61682;BME280;47577;43.610;25.010;2023-04-12T07:38:46;99301.06;;;12.29;61.21
61682;BME280;47577;43.610;25.010;2023-04-12T07:41:13;99309.84;;;12.15;61.68
61682;BME280;47577;43.610;25.010;2023-04-12T07:43:38;99293.44;;;12.06;61.33
61682;BME280;47577;43.610;25.010;2023-04-12T07:46:04;99281.91;;;11.90;62.31
61682;BME280;47577;43.610;25.010;2023-04-12T07:48:33;99318.22;;;11.93;61.43
61682;BME280;47577;43.610;25.010;2023-04-12T07:50:58;99281.19;;;12.04;62.37
61682;BME280;47577;43.610;25.010;2023-04-12T07:53:26;99293.84;;;12.15;62.09
61682;BME280;47577;43.610;25.010;2023-04-12T07:55:53;99302.56;;;11.86;61.79
61682;BME280;47577;43.610;25.010;2023-04-12T07:58:21;99310.44;;;11.72;61.42
61682;BME280;47577;43.610;25.010;2023-04-12T08:00:47;99299.09;;;11.52;63.71
61682;BME280;47577;43.610;25.010;2023-04-12T08:03:16;99302.38;;;11.58;63.25
61682;BME280;47577;43.610;25.010;2023-04-12T08:05:43;99293.03;;;11.50;63.41
61682;BME280;47577;43.610;25.010;2023-04-12T08:08:09;99292.59;;;11.58;62.43
61682;BME280;47577;43.610;25.010;2023-04-12T08:10:35;99297.84;;;11.60;63.36
61682;BME280;47577;43.610;25.010;2023-04-12T08:13:02;99337.38;;;11.50;62.28
61682;BME280;47577;43.610;25.010;2023-04-12T08:15:28;99289.50;;;11.66;63.93
61682;BME280;47577;43.610;25.010;2023-04-12T08:17:53;99290.28;;;12.00;63.08
61682;BME280;47577;43.610;25.010;2023-04-12T08:20:19;99290.94;;;12.03;60.64
61682;BME280;47577;43.610;25.010;2023-04-12T08:22:45;99306.06;;;12.19;59.57
61682;BME280;47577;43.610;25.010;2023-04-12T08:25:12;99303.31;;;12.20;59.85
61682;BME280;47577;43.610;25.010;2023-04-12T08:27:41;99302.47;;;12.20;60.83
61682;BME280;47577;43.610;25.010;2023-04-12T08:30:10;99306.91;;;12.19;58.83
61682;BME280;47577;43.610;25.010;2023-04-12T08:32:36;99276.84;;;12.17;59.26
61682;BME280;47577;43.610;25.010;2023-04-12T08:35:03;99310.06;;;12.12;60.32
61682;BME280;47577;43.610;25.010;2023-04-12T08:37:28;99295.00;;;12.11;60.39
61682;BME280;47577;43.610;25.010;2023-04-12T08:39:54;99295.94;;;12.10;60.15
61682;BME280;47577;43.610;25.010;2023-04-12T08:42:21;99303.59;;;12.16;60.13
61682;BME280;47577;43.610;25.010;2023-04-12T08:44:46;99283.03;;;12.48;58.50
61682;BME280;47577;43.610;25.010;2023-04-12T08:47:12;99274.81;;;12.37;59.50
61682;BME280;47577;43.610;25.010;2023-04-12T08:49:38;99303.44;;;12.49;59.05
61682;BME280;47577;43.610;25.010;2023-04-12T08:52:05;99280.94;;;12.53;58.45
61682;BME280;47577;43.610;25.010;2023-04-12T08:54:32;99297.13;;;12.50;58.27
61682;BME280;47577;43.610;25.010;2023-04-12T08:57:00;99283.06;;;12.62;58.07
61682;BME280;47577;43.610;25.010;2023-04-12T08:59:27;99282.34;;;12.75;58.55
61682;BME280;47577;43.610;25.010;2023-04-12T09:01:54;99275.16;;;12.61;58.12
61682;BME280;47577;43.610;25.010;2023-04-12T09:04:20;99289.13;;;12.95;58.97
61682;BME280;47577;43.610;25.010;2023-04-12T09:06:46;99284.84;;;13.07;56.10
61682;BME280;47577;43.610;25.010;2023-04-12T09:09:11;99292.34;;;12.86;56.46
61682;BME280;47577;43.610;25.010;2023-04-12T09:11:38;99273.41;;;13.05;58.02
61682;BME280;47577;43.610;25.010;2023-04-12T09:14:19;99268.72;;;13.08;56.68
61682;BME280;47577;43.610;25.010;2023-04-12T09:16:46;99267.03;;;13.07;56.05
61682;BME280;47577;43.610;25.010;2023-04-12T09:19:12;99274.84;;;12.96;55.80
61682;BME280;47577;43.610;25.010;2023-04-12T09:21:51;99281.59;;;13.30;56.49
61682;BME280;47577;43.610;25.010;2023-04-12T09:24:17;99269.28;;;13.28;55.45
61682;BME280;47577;43.610;25.010;2023-04-12T09:26:43;99271.53;;;13.77;55.80
61682;BME280;47577;43.610;25.010;2023-04-12T09:29:24;99255.97;;;13.84;54.28
61682;BME280;47577;43.610;25.010;2023-04-12T09:32:01;99272.31;;;14.06;52.74
61682;BME280;47577;43.610;25.010;2023-04-12T09:34:28;99271.41;;;14.33;53.72
61682;BME280;47577;43.610;25.010;2023-04-12T09:36:54;99265.63;;;14.79;52.99
61682;BME280;47577;43.610;25.010;2023-04-12T09:39:30;99277.63;;;14.87;50.74
61682;BME280;47577;43.610;25.010;2023-04-12T09:42:06;99279.66;;;14.70;49.58
61682;BME280;47577;43.610;25.010;2023-04-12T09:44:32;99271.94;;;14.25;51.28
61682;BME280;47577;43.610;25.010;2023-04-12T09:46:59;99288.63;;;14.02;53.44
61682;BME280;47577;43.610;25.010;2023-04-12T09:49:40;99306.50;;;14.29;53.70
61682;BME280;47577;43.610;25.010;2023-04-12T09:52:07;99303.16;;;13.70;51.40
61682;BME280;47577;43.610;25.010;2023-04-12T09:57:06;99274.72;;;13.69;52.59
61682;BME280;47577;43.610;25.010;2023-04-12T09:59:36;99290.59;;;13.44;52.67
61682;BME280;47577;43.610;25.010;2023-04-12T10:02:16;99298.31;;;13.34;52.94
61682;BME280;47577;43.610;25.010;2023-04-12T10:04:42;99294.25;;;12.84;54.06
61682;BME280;47577;43.610;25.010;2023-04-12T10:07:08;99298.56;;;13.15;54.10
61682;BME280;47577;43.610;25.010;2023-04-12T10:09:36;99303.81;;;13.16;54.84
61682;BME280;47577;43.610;25.010;2023-04-12T10:12:03;99310.59;;;13.08;53.87
61682;BME280;47577;43.610;25.010;2023-04-12T10:14:30;99301.72;;;13.07;53.23
61682;BME280;47577;43.610;25.010;2023-04-12T10:16:57;99296.50;;;13.20;53.11
61682;BME280;47577;43.610;25.010;2023-04-12T10:19:27;99306.56;;;13.29;54.01
61682;BME280;47577;43.610;25.010;2023-04-12T10:21:54;99297.53;;;13.17;54.58
61682;BME280;47577;43.610;25.010;2023-04-12T10:24:25;99300.28;;;13.02;53.14
61682;BME280;47577;43.610;25.010;2023-04-12T10:26:52;99290.06;;;12.94;53.52
61682;BME280;47577;43.610;25.010;2023-04-12T10:29:27;99291.44;;;13.01;54.53
61682;BME280;47577;43.610;25.010;2023-04-12T10:31:58;99313.91;;;12.97;53.98
61682;BME280;47577;43.610;25.010;2023-04-12T10:34:42;99301.03;;;13.04;53.56
61682;BME280;47577;43.610;25.010;2023-04-12T10:37:08;99301.63;;;13.09;53.62
61682;BME280;47577;43.610;25.010;2023-04-12T10:39:40;99300.19;;;13.32;54.50
61682;BME280;47577;43.610;25.010;2023-04-12T10:42:21;99301.34;;;13.57;54.50
61682;BME280;47577;43.610;25.010;2023-04-12T10:44:48;99292.31;;;13.86;53.90
61682;BME280;47577;43.610;25.010;2023-04-12T10:47:15;99297.13;;;13.67;52.58
61682;BME280;47577;43.610;25.010;2023-04-12T10:53:19;99291.00;;;14.06;54.05
61682;BME280;47577;43.610;25.010;2023-04-12T10:55:46;99287.56;;;14.32;54.13
61682;BME280;47577;43.610;25.010;2023-04-12T11:01:12;99280.88;;;14.52;51.99
61682;BME280;47577;43.610;25.010;2023-04-12T11:22:11;99305.25;;;14.87;50.80
61682;BME280;47577;43.610;25.010;2023-04-12T11:24:45;99295.72;;;14.83;50.59
61682;BME280;47577;43.610;25.010;2023-04-12T11:27:12;99284.25;;;15.32;49.42
61682;BME280;47577;43.610;25.010;2023-04-12T11:29:38;99286.25;;;15.42;47.51
61682;BME280;47577;43.610;25.010;2023-04-12T11:32:05;99285.84;;;15.35;46.82
61682;BME280;47577;43.610;25.010;2023-04-12T11:34:35;99293.38;;;15.17;46.64
61682;BME280;47577;43.610;25.010;2023-04-12T11:37:01;99301.31;;;15.81;47.89
61682;BME280;47577;43.610;25.010;2023-04-12T11:39:39;99282.91;;;15.64;47.83
61682;BME280;47577;43.610;25.010;2023-04-12T11:42:05;99277.47;;;15.52;47.58
61682;BME280;47577;43.610;25.010;2023-04-12T11:44:39;99263.13;;;15.41;46.69
61682;BME280;47577;43.610;25.010;2023-04-12T11:47:07;99269.91;;;15.70;46.83
61682;BME280;47577;43.610;25.010;2023-04-12T11:49:43;99283.06;;;15.86;44.09
61682;BME280;47577;43.610;25.010;2023-04-12T11:52:09;99282.75;;;15.15;47.12
61682;BME280;47577;43.610;25.010;2023-04-12T11:54:35;99285.34;;;15.04;48.09
61682;BME280;47577;43.610;25.010;2023-04-12T11:57:01;99263.25;;;15.26;49.33
61682;BME280;47577;43.610;25.010;2023-04-12T11:59:33;99278.25;;;15.16;45.20
61682;BME280;47577;43.610;25.010;2023-04-12T12:02:00;99287.25;;;15.28;47.98
61682;BME280;47577;43.610;25.010;2023-04-12T12:04:30;99266.91;;;15.25;46.52
61682;BME280;47577;43.610;25.010;2023-04-12T12:06:56;99278.34;;;15.27;47.17
61682;BME280;47577;43.610;25.010;2023-04-12T12:09:24;99283.34;;;15.58;46.09
61682;BME280;47577;43.610;25.010;2023-04-12T12:11:51;99284.16;;;15.71;45.95
61682;BME280;47577;43.610;25.010;2023-04-12T12:14:21;99274.31;;;15.71;46.28
61682;BME280;47577;43.610;25.010;2023-04-12T12:16:55;99284.03;;;15.72;46.84
61682;BME280;47577;43.610;25.010;2023-04-12T12:19:31;99284.38;;;15.81;46.78
61682;BME280;47577;43.610;25.010;2023-04-12T12:22:24;99284.94;;;15.60;45.77
61682;BME280;47577;43.610;25.010;2023-04-12T12:24:57;99269.47;;;15.14;45.54
61682;BME280;47577;43.610;25.010;2023-04-12T12:29:54;99279.78;;;15.07;47.30
61682;BME280;47577;43.610;25.010;2023-04-12T12:32:21;99278.25;;;14.65;47.43
61682;BME280;47577;43.610;25.010;2023-04-12T12:34:52;99268.72;;;14.73;47.34
61682;BME280;47577;43.610;25.010;2023-04-12T12:37:25;99275.38;;;14.68;48.02
61682;BME280;47577;43.610;25.010;2023-04-12T12:40:11;99275.47;;;14.66;47.86
61682;BME280;47577;43.610;25.010;2023-04-12T12:42:51;99275.13;;;14.58;49.36
61682;BME280;47577;43.610;25.010;2023-04-12T12:45:20;99280.97;;;14.50;48.76
61682;BME280;47577;43.610;25.010;2023-04-12T12:47:52;99282.25;;;14.44;48.39
61682;BME280;47577;43.610;25.010;2023-04-12T12:50:21;99256.09;;;14.22;49.11
61682;BME280;47577;43.610;25.010;2023-04-12T12:52:48;99263.22;;;14.09;48.57
61682;BME280;47577;43.610;25.010;2023-04-12T12:55:16;99271.31;;;14.35;48.79
61682;BME280;47577;43.610;25.010;2023-04-12T12:57:43;99275.91;;;14.33;48.72
61682;BME280;47577;43.610;25.010;2023-04-12T13:00:10;99275.22;;;14.16;49.15
61682;BME280;47577;43.610;25.010;2023-04-12T13:02:38;99285.78;;;14.05;50.45
61682;BME280;47577;43.610;25.010;2023-04-12T13:05:05;99275.97;;;13.91;49.63
61682;BME280;47577;43.610;25.010;2023-04-12T13:07:31;99275.38;;;14.00;49.35
61682;BME280;47577;43.610;25.010;2023-04-12T13:09:57;99290.41;;;13.88;50.30
61682;BME280;47577;43.610;25.010;2023-04-12T13:12:23;99269.63;;;14.06;49.92
61682;BME280;47577;43.610;25.010;2023-04-12T13:14:48;99281.31;;;14.18;49.15
61682;BME280;47577;43.610;25.010;2023-04-12T13:17:14;99282.16;;;14.06;48.55
61682;BME280;47577;43.610;25.010;2023-04-12T13:19:40;99291.66;;;14.10;48.73
61682;BME280;47577;43.610;25.010;2023-04-12T13:22:06;99291.50;;;14.26;47.13
61682;BME280;47577;43.610;25.010;2023-04-12T13:24:33;99288.19;;;14.22;50.06
61682;BME280;47577;43.610;25.010;2023-04-12T13:27:00;99278.09;;;14.13;46.91
61682;BME280;47577;43.610;25.010;2023-04-12T13:29:27;99289.69;;;14.26;48.06
61682;BME280;47577;43.610;25.010;2023-04-12T13:31:52;99283.19;;;14.03;48.66
61682;BME280;47577;43.610;25.010;2023-04-12T13:34:18;99312.16;;;14.24;48.92
61682;BME280;47577;43.610;25.010;2023-04-12T13:36:44;99296.59;;;13.89;49.49
61682;BME280;47577;43.610;25.010;2023-04-12T13:39:10;99302.50;;;14.21;50.48
61682;BME280;47577;43.610;25.010;2023-04-12T13:41:35;99288.22;;;14.35;49.90